Time;durP1;ratioP1;P1;durP2;ratioP2;P2;SDS_P1;SDS_P2;PMS_P1;PMS_P2;Temp;Humidity;BMP_temperature;BMP_pressure;BME280_temperature;BME280_humidity;BME280_pressure;Samples;Min_cycle;Max_cycle;Signal;HPM_P1;HPM_P2
2021/05/16 00:07:18;;;;;;;3.20;1.80;;;20.70;57.00;;;;;;20829715;28;20053;-64
2021/05/16 00:17:19;;;;;;;3.42;1.40;;;20.70;54.90;;;;;;20829627;28;20053;-65
2021/05/16 00:27:21;;;;;;;3.40;1.13;;;20.70;55.50;;;;;;20829272;28;20138;-65
2021/05/16 00:37:22;;;;;;;1.83;1.00;;;20.60;54.50;;;;;;20828481;28;20037;-66
2021/05/16 00:47:23;;;;;;;3.70;1.90;;;20.50;52.60;;;;;;20828472;28;20046;-65
2021/05/16 00:57:25;;;;;;;2.20;0.98;;;20.40;55.00;;;;;;20829589;28;20493;-61
2021/05/16 01:07:27;;;;;;;2.00;1.30;;;20.30;54.10;;;;;;20828095;28;20441;-64
2021/05/16 01:17:28;;;;;;;2.58;1.77;;;20.20;56.30;;;;;;20828277;28;20482;-61
2021/05/16 01:27:29;;;;;;;2.28;1.25;;;20.10;58.10;;;;;;20827181;28;20104;-61
2021/05/16 01:37:30;;;;;;;3.22;1.85;;;20.00;59.50;;;;;;20838589;28;20052;-66
2021/05/16 01:47:32;;;;;;;2.20;1.30;;;19.90;60.00;;;;;;20840859;28;20386;-65
2021/05/16 01:57:33;;;;;;;4.68;1.73;;;19.70;60.60;;;;;;20838804;28;20049;-65
2021/05/16 02:07:35;;;;;;;2.10;1.42;;;19.70;60.90;;;;;;20839445;28;20065;-65
2021/05/16 02:17:39;;;;;;;1.95;1.20;;;19.60;60.90;;;;;;20839593;28;20469;-64
2021/05/16 02:27:40;;;;;;;1.98;1.20;;;19.50;61.20;;;;;;20837620;28;20057;-65
2021/05/16 02:37:42;;;;;;;1.90;1.05;;;19.40;61.10;;;;;;20836948;28;20389;-64
2021/05/16 02:47:44;;;;;;;2.17;1.38;;;19.30;60.90;;;;;;20849833;28;20061;-65
2021/05/16 02:57:45;;;;;;;2.95;1.15;;;19.10;61.40;;;;;;20836263;28;20486;-64
2021/05/16 03:07:46;;;;;;;3.53;1.17;;;19.00;61.90;;;;;;20834125;28;20057;-65
2021/05/16 03:17:48;;;;;;;2.40;1.23;;;18.90;62.10;;;;;;20834146;28;20103;-64
2021/05/16 03:27:49;;;;;;;5.45;4.80;;;18.80;62.10;;;;;;20833570;28;20068;-65
2021/05/16 03:37:50;;;;;;;9.25;7.97;;;18.70;62.70;;;;;;20833330;28;20049;-61
2021/05/16 03:47:52;;;;;;;7.82;5.07;;;18.60;63.30;;;;;;20831271;28;20053;-64
2021/05/16 03:57:53;;;;;;;5.57;4.57;;;18.50;63.60;;;;;;20829722;28;20045;-64
2021/05/16 04:07:54;;;;;;;2.78;2.10;;;18.30;64.20;;;;;;20829942;28;20053;-65
2021/05/16 04:17:56;;;;;;;4.75;1.70;;;18.40;64.30;;;;;;20828256;28;20057;-64
2021/05/16 04:27:57;;;;;;;4.20;1.60;;;18.40;64.40;;;;;;20828647;28;20057;-65
2021/05/16 04:37:58;;;;;;;2.85;1.10;;;18.30;64.40;;;;;;20843869;28;20081;-64
2021/05/16 04:48:00;;;;;;;1.98;1.10;;;18.20;64.50;;;;;;20828301;28;20050;-64
2021/05/16 04:58:01;;;;;;;2.13;1.20;;;18.20;64.60;;;;;;20828260;28;20049;-65
2021/05/16 05:08:03;;;;;;;1.95;1.27;;;18.10;64.90;;;;;;20835178;28;20060;-66
2021/05/16 05:18:04;;;;;;;6.88;2.22;;;18.00;64.70;;;;;;20843571;28;20073;-64
2021/05/16 05:28:07;;;;;;;1.90;1.20;;;18.00;64.80;;;;;;20842367;28;20096;-64
2021/05/16 05:38:08;;;;;;;3.95;1.10;;;18.00;64.90;;;;;;20858029;28;20041;-60
2021/05/16 05:48:09;;;;;;;2.22;1.50;;;18.00;65.00;;;;;;20839245;28;20045;-61
2021/05/16 05:58:12;;;;;;;2.25;1.42;;;18.00;65.00;;;;;;20840932;28;20128;-65
2021/05/16 06:08:13;;;;;;;2.95;1.70;;;18.10;65.20;;;;;;20838706;28;20057;-65
2021/05/16 06:18:14;;;;;;;2.67;1.35;;;18.10;65.20;;;;;;20837750;28;20046;-64
2021/05/16 06:28:16;;;;;;;2.97;1.40;;;18.10;65.20;;;;;;20837615;28;20418;-64
2021/05/16 06:38:17;;;;;;;2.65;1.70;;;18.20;64.50;;;;;;20836819;28;20041;-64
2021/05/16 06:48:18;;;;;;;3.97;1.70;;;18.40;64.30;;;;;;20835902;28;20045;-61
2021/05/16 06:58:19;;;;;;;1.92;1.40;;;19.10;62.40;;;;;;20833916;28;20053;-65
2021/05/16 07:08:20;;;;;;;3.95;1.80;;;19.90;59.80;;;;;;20834450;28;20049;-65
2021/05/16 07:18:25;;;;;;;3.05;1.50;;;20.40;57.80;;;;;;20833547;28;20052;-65
2021/05/16 07:28:26;;;;;;;2.55;1.23;;;20.90;56.10;;;;;;20832457;28;20057;-65
2021/05/16 07:38:28;;;;;;;2.25;1.40;;;21.60;54.30;;;;;;20832195;28;20456;-65
2021/05/16 07:48:29;;;;;;;2.65;1.20;;;22.20;52.40;;;;;;20831396;28;20049;-65
2021/05/16 07:58:31;;;;;;;2.53;1.95;;;22.60;51.40;;;;;;20831411;28;20056;-64
2021/05/16 08:08:32;;;;;;;2.65;1.60;;;23.00;50.30;;;;;;20830266;28;20490;-66
2021/05/16 08:18:33;;;;;;;4.07;1.50;;;23.40;49.20;;;;;;20828972;28;20046;-64
2021/05/16 08:28:34;;;;;;;5.22;2.10;;;23.60;48.50;;;;;;20827384;28;20053;-66
2021/05/16 08:38:36;;;;;;;5.45;3.28;;;24.00;48.20;;;;;;20828956;28;20077;-65
2021/05/16 08:48:39;;;;;;;2.67;1.50;;;24.30;47.20;;;;;;20844662;28;20057;-63
2021/05/16 08:58:40;;;;;;;3.83;1.38;;;24.40;46.70;;;;;;20844244;28;20041;-66
2021/05/16 09:08:42;;;;;;;3.97;1.63;;;24.70;45.70;;;;;;20844722;28;20413;-64
2021/05/16 09:18:54;;;;;;;3.00;1.27;;;25.00;45.10;;;;;;20841744;28;20107;-65
2021/05/16 09:29:15;;;;;;;4.13;1.80;;;25.20;44.30;;;;;;20858109;28;20064;-65
2021/05/16 09:39:22;;;;;;;4.35;1.50;;;25.20;44.50;;;;;;20844132;28;20406;-66
2021/05/16 09:49:26;;;;;;;2.60;1.40;;;25.50;43.00;;;;;;20860800;28;20045;-64
2021/05/16 09:59:27;;;;;;;3.40;2.03;;;25.70;43.20;;;;;;20857429;28;20041;-65
2021/05/16 10:09:28;;;;;;;2.30;1.30;;;25.80;42.00;;;;;;20839098;28;20057;-65
2021/05/16 10:19:36;;;;;;;5.00;1.53;;;26.00;41.40;;;;;;20837912;28;20054;-66
2021/05/16 10:29:54;;;;;;;4.90;1.67;;;26.00;41.60;;;;;;20836937;28;20060;-66
2021/05/16 10:39:56;;;;;;;4.43;2.28;;;26.00;41.10;;;;;;20836417;28;20205;-66
2021/05/16 10:49:57;;;;;;;4.35;1.88;;;26.00;41.70;;;;;;20835512;28;20076;-66
2021/05/16 11:00:18;;;;;;;3.60;2.20;;;26.10;41.50;;;;;;20835881;28;20057;-65
2021/05/16 11:10:22;;;;;;;3.63;1.30;;;26.30;41.20;;;;;;20832936;28;20085;-66
2021/05/16 11:20:24;;;;;;;3.90;1.65;;;26.30;40.50;;;;;;20833616;28;20091;-66
2021/05/16 11:30:28;;;;;;;3.60;1.65;;;26.10;41.10;;;;;;20832815;28;20513;-67
2021/05/16 11:40:36;;;;;;;6.13;4.20;;;26.20;41.00;;;;;;20847083;28;20060;-63
2021/05/16 11:50:43;;;;;;;5.20;1.95;;;26.20;40.40;;;;;;20831093;28;20091;-65
2021/05/16 12:00:47;;;;;;;5.38;3.10;;;26.20;40.50;;;;;;20831126;28;20061;-66
2021/05/16 12:11:16;;;;;;;3.60;2.38;;;26.30;39.70;;;;;;20829588;28;20049;-66
2021/05/16 12:21:19;;;;;;;2.90;1.60;;;26.50;39.00;;;;;;20844246;28;20087;-66
2021/05/16 12:31:22;;;;;;;2.20;1.30;;;26.60;39.40;;;;;;20828718;28;20061;-64
2021/05/16 12:41:26;;;;;;;3.05;1.80;;;26.60;39.30;;;;;;20827695;28;20041;-65
2021/05/16 12:51:27;;;;;;;6.68;2.20;;;26.80;39.10;;;;;;20828259;28;20096;-65
2021/05/16 13:01:31;;;;;;;5.88;1.70;;;26.70;39.30;;;;;;20827639;28;20099;-66
2021/05/16 13:11:50;;;;;;;2.97;1.80;;;26.90;39.10;;;;;;20829246;28;20068;-66
2021/05/16 13:21:51;;;;;;;6.88;2.13;;;27.00;39.20;;;;;;20826931;28;20049;-64
2021/05/16 13:31:53;;;;;;;2.63;1.75;;;26.90;39.30;;;;;;20836289;28;20057;-66
2021/05/16 13:41:59;;;;;;;2.60;1.30;;;27.00;38.90;;;;;;20841093;28;20053;-65
2021/05/16 13:52:01;;;;;;;2.15;1.10;;;27.10;38.30;;;;;;20840701;28;20409;-66
2021/05/16 14:02:02;;;;;;;2.58;1.20;;;27.10;38.60;;;;;;20839855;28;20053;-65
2021/05/16 14:12:04;;;;;;;2.65;1.80;;;27.10;38.70;;;;;;20838829;28;20119;-65
2021/05/16 14:22:05;;;;;;;4.75;2.38;;;27.20;38.60;;;;;;20837589;28;20056;-65
2021/05/16 14:32:06;;;;;;;3.53;2.00;;;27.20;38.80;;;;;;20836944;28;20058;-66
2021/05/16 14:42:08;;;;;;;2.58;1.40;;;27.20;38.90;;;;;;20835898;28;20049;-64
2021/05/16 14:52:09;;;;;;;2.00;1.10;;;27.40;38.60;;;;;;20851587;28;20540;-65
2021/05/16 15:02:11;;;;;;;;;;;28.10;37.70;;;;;;20836109;28;20486;-67
2021/05/16 15:12:12;;;;;;;5.07;4.03;;;27.30;39.30;;;;;;20835624;28;19925;-67
2021/05/16 15:22:14;;;;;;;2.60;1.42;;;27.40;39.30;;;;;;20838421;28;20408;-64
2021/05/16 15:32:15;;;;;;;;;;;27.50;38.80;;;;;;20832438;28;20046;-66
2021/05/16 15:42:17;;;;;;;1.73;0.97;;;27.20;39.00;;;;;;20833107;28;19998;-65
2021/05/16 15:52:19;;;;;;;0.77;0.40;;;27.30;39.30;;;;;;20830648;28;20045;-66
2021/05/16 16:02:20;;;;;;;;;;;27.10;38.80;;;;;;20832240;28;20755;-66
2021/05/16 16:12:21;;;;;;;1.73;0.47;;;26.90;39.10;;;;;;20829901;28;19921;-65
2021/05/16 16:22:22;;;;;;;1.13;0.60;;;26.80;39.00;;;;;;20828491;28;20103;-64
2021/05/16 16:32:24;;;;;;;0.90;0.50;;;26.60;39.50;;;;;;20828698;28;20057;-64
2021/05/16 16:42:26;;;;;;;2.20;1.02;;;26.60;39.90;;;;;;20828775;28;20066;-65
2021/05/16 16:52:27;;;;;;;2.55;0.60;;;26.40;40.30;;;;;;20828335;28;20053;-64
2021/05/16 17:02:28;;;;;;;0.80;0.47;;;26.40;40.00;;;;;;20829917;28;20103;-66
2021/05/16 17:12:29;;;;;;;2.27;0.50;;;26.20;39.80;;;;;;20843817;28;20041;-65
2021/05/16 17:22:31;;;;;;;1.45;0.50;;;26.00;39.90;;;;;;20842802;28;20049;-65
2021/05/16 17:32:33;;;;;;;0.90;0.40;;;25.80;40.40;;;;;;20841978;28;20053;-64
2021/05/16 17:42:34;;;;;;;;;;;25.60;41.00;;;;;;20841928;28;20486;-65
2021/05/16 17:52:35;;;;;;;3.85;2.25;;;25.40;41.50;;;;;;20840635;28;19928;-64
2021/05/16 18:02:45;;;;;;;11.23;9.63;;;25.60;41.40;;;;;;20839206;28;20053;-65
2021/05/16 18:12:49;;;;;;;4.25;3.05;;;25.40;41.80;;;;;;20838140;28;20052;-65
2021/05/16 18:22:51;;;;;;;2.90;1.63;;;25.20;42.10;;;;;;20838308;28;20395;-65
2021/05/16 18:32:52;;;;;;;1.55;0.82;;;25.20;42.50;;;;;;20837620;28;20103;-64
2021/05/16 18:42:53;;;;;;;1.50;0.80;;;25.40;42.10;;;;;;20836734;28;20060;-64
2021/05/16 18:52:56;;;;;;;1.73;1.20;;;24.60;44.00;;;;;;20837211;28;20041;-65
2021/05/16 19:02:58;;;;;;;1.40;0.90;;;24.40;44.70;;;;;;20834903;28;20045;-64
2021/05/16 19:13:00;;;;;;;2.60;1.55;;;24.20;45.20;;;;;;20834281;28;20398;-65
2021/05/16 19:23:02;;;;;;;1.97;0.57;;;24.10;45.60;;;;;;20833753;28;20417;-65
2021/05/16 19:33:04;;;;;;;1.60;0.93;;;23.90;46.30;;;;;;20832870;28;20447;-65
2021/05/16 19:43:05;;;;;;;1.10;0.60;;;23.70;47.20;;;;;;20832260;28;20057;-64
2021/05/16 19:53:09;;;;;;;2.23;0.70;;;23.60;47.70;;;;;;20832580;28;20482;-65
2021/05/16 20:03:11;;;;;;;2.13;1.02;;;23.40;48.00;;;;;;20832295;28;20132;-66
2021/05/16 20:13:13;;;;;;;4.18;1.58;;;23.30;48.40;;;;;;20832265;28;20398;-64
2021/05/16 20:23:14;;;;;;;2.20;0.70;;;23.10;48.80;;;;;;20828935;28;20092;-64
2021/05/16 20:33:16;;;;;;;1.20;0.70;;;23.00;49.20;;;;;;20829785;28;20056;-65
2021/05/16 20:43:18;;;;;;;1.37;0.80;;;22.80;49.70;;;;;;20845426;28;20046;-64
2021/05/16 20:53:19;;;;;;;;;;;22.70;50.10;;;;;;20845328;28;20053;-67
2021/05/16 21:03:21;;;;;;;1.17;0.80;;;22.40;50.90;;;;;;20846383;28;19921;-64
2021/05/16 21:13:22;;;;;;;1.23;0.70;;;22.40;51.00;;;;;;20843625;28;20452;-65
2021/05/16 21:23:24;;;;;;;1.30;0.70;;;22.20;50.70;;;;;;20842996;28;20452;-64
2021/05/16 21:33:25;;;;;;;1.70;0.93;;;22.20;50.60;;;;;;20842301;28;20045;-64
2021/05/16 21:43:28;;;;;;;2.70;2.17;;;22.10;50.60;;;;;;20841348;28;20060;-64
2021/05/16 21:53:29;;;;;;;1.77;1.00;;;21.90;50.40;;;;;;20838779;28;20073;-65
2021/05/16 22:03:30;;;;;;;1.88;1.00;;;21.70;50.10;;;;;;20840105;28;20053;-64
2021/05/16 22:13:32;;;;;;;1.27;0.70;;;21.60;50.00;;;;;;20854716;28;20041;-64
2021/05/16 22:23:34;;;;;;;1.40;0.80;;;21.60;50.20;;;;;;20838534;28;20049;-64
2021/05/16 22:33:36;;;;;;;0.60;0.50;;;21.50;50.40;;;;;;20836543;28;20567;-64
2021/05/16 22:43:37;;;;;;;2.35;1.30;;;21.30;50.80;;;;;;20835325;28;20056;-65
2021/05/16 22:53:38;;;;;;;1.85;0.70;;;21.20;51.40;;;;;;20834234;28;20045;-64
2021/05/16 23:03:40;;;;;;;1.15;0.57;;;21.20;51.60;;;;;;20834703;28;20053;-64
2021/05/16 23:13:41;;;;;;;0.90;0.50;;;21.00;51.70;;;;;;20834226;28;20409;-65
2021/05/16 23:23:42;;;;;;;1.10;0.55;;;20.80;52.30;;;;;;20833662;28;20458;-64
2021/05/16 23:33:44;;;;;;;1.05;0.60;;;20.60;53.10;;;;;;20832506;28;20087;-65
2021/05/16 23:43:45;;;;;;;2.00;0.50;;;20.40;53.40;;;;;;20831804;28;20058;-64
2021/05/16 23:53:47;;;;;;;0.80;0.50;;;20.30;53.50;;;;;;20830791;28;20045;-61
